createdAt,value
2022-08-30T00:02:19.552Z,44.20
2022-08-30T00:04:46.588Z,43.90
2022-08-30T00:07:13.339Z,43.30
2022-08-30T00:09:40.135Z,43.00
2022-08-30T00:12:07.021Z,42.70
2022-08-30T00:14:33.773Z,42.00
2022-08-30T00:17:00.543Z,42.00
2022-08-30T00:19:27.283Z,41.30
2022-08-30T00:21:54.043Z,41.10
2022-08-30T00:24:20.787Z,40.80
2022-08-30T00:26:47.727Z,40.60
2022-08-30T00:29:14.476Z,40.20
2022-08-30T00:31:41.406Z,39.80
2022-08-30T00:34:08.170Z,39.60
2022-08-30T00:36:34.969Z,39.40
2022-08-30T00:39:01.727Z,39.20
2022-08-30T00:41:28.865Z,38.80
2022-08-30T00:43:55.634Z,38.90
2022-08-30T00:46:22.481Z,40.90
2022-08-30T00:48:49.306Z,41.80
2022-08-30T00:51:16.083Z,41.70
2022-08-30T00:53:44.577Z,41.60
2022-08-30T00:56:12.608Z,41.30
2022-08-30T00:58:41.829Z,41.20
2022-08-30T01:01:08.676Z,41.10
2022-08-30T01:03:35.782Z,40.70
2022-08-30T01:06:02.868Z,40.70
2022-08-30T01:08:29.627Z,40.70
2022-08-30T01:10:57.331Z,40.60
2022-08-30T01:13:24.119Z,40.50
2022-08-30T01:15:50.930Z,40.10
2022-08-30T01:18:18.892Z,40.20
2022-08-30T01:20:49.317Z,40.00
2022-08-30T01:23:16.924Z,40.00
2022-08-30T01:25:45.293Z,39.90
2022-08-30T01:28:13.592Z,40.00
2022-08-30T01:30:42.842Z,39.90
2022-08-30T01:33:10.194Z,39.70
2022-08-30T01:35:43.450Z,39.60
2022-08-30T01:38:10.993Z,39.50
2022-08-30T01:40:37.757Z,39.30
2022-08-30T01:43:04.529Z,39.20
2022-08-30T01:45:31.314Z,39.40
2022-08-30T01:47:58.708Z,38.80
2022-08-30T01:50:29.487Z,38.90
2022-08-30T01:52:56.237Z,38.90
2022-08-30T01:55:23.293Z,38.70
2022-08-30T01:57:50.029Z,38.80
2022-08-30T02:00:17.000Z,38.80
2022-08-30T02:02:43.966Z,38.50
2022-08-30T02:05:10.776Z,38.60
2022-08-30T02:07:37.524Z,38.40
2022-08-30T02:10:06.921Z,38.50
2022-08-30T02:12:34.426Z,38.20
2022-08-30T02:15:01.174Z,38.40
2022-08-30T02:17:27.980Z,38.30
2022-08-30T02:19:54.710Z,38.00
2022-08-30T02:22:21.459Z,38.10
2022-08-30T02:24:48.268Z,38.50
2022-08-30T02:27:15.034Z,38.40
2022-08-30T02:29:41.816Z,38.60
2022-08-30T02:32:08.569Z,38.60
2022-08-30T02:34:35.415Z,38.70
2022-08-30T02:37:02.240Z,38.60
2022-08-30T02:39:29.030Z,38.40
2022-08-30T02:41:55.771Z,38.70
2022-08-30T02:44:22.549Z,38.60
2022-08-30T02:46:49.316Z,38.70
2022-08-30T02:52:04.079Z,39.70
2022-08-30T02:54:33.212Z,40.60
2022-08-30T02:57:04.724Z,40.50
2022-08-30T02:59:32.131Z,40.40
2022-08-30T03:01:58.990Z,40.40
2022-08-30T03:04:26.926Z,40.00
2022-08-30T03:06:53.989Z,39.70
2022-08-30T03:09:20.752Z,39.20
2022-08-30T03:11:47.766Z,38.90
2022-08-30T03:14:14.569Z,39.50
2022-08-30T03:16:41.398Z,38.50
2022-08-30T03:19:08.285Z,38.50
2022-08-30T03:21:36.212Z,37.90
2022-08-30T03:24:03.141Z,38.20
2022-08-30T03:26:29.871Z,37.60
2022-08-30T03:28:56.604Z,37.80
2022-08-30T03:31:23.555Z,37.80
2022-08-30T03:33:50.310Z,37.40
2022-08-30T03:36:17.089Z,37.40
2022-08-30T03:38:43.911Z,37.40
2022-08-30T03:41:11.400Z,37.50
2022-08-30T03:43:38.182Z,37.20
2022-08-30T03:46:05.094Z,37.30
2022-08-30T03:48:31.870Z,37.10
2022-08-30T03:50:58.616Z,37.00
2022-08-30T03:53:27.003Z,37.00
2022-08-30T03:55:54.147Z,37.00
2022-08-30T03:58:21.709Z,36.80
2022-08-30T04:00:48.603Z,36.90
2022-08-30T04:03:15.660Z,36.70
2022-08-30T04:05:42.573Z,37.00
2022-08-30T04:08:09.356Z,36.70
2022-08-30T04:10:36.208Z,36.80
2022-08-30T04:13:02.987Z,36.60
2022-08-30T04:15:29.739Z,36.60
2022-08-30T04:17:56.554Z,36.40
2022-08-30T04:20:23.374Z,36.80
2022-08-30T04:22:51.735Z,36.50
2022-08-30T04:25:18.630Z,36.50
2022-08-30T04:27:45.712Z,36.20
2022-08-30T04:30:12.813Z,36.80
2022-08-30T04:32:39.570Z,36.20
2022-08-30T04:35:06.604Z,36.30
2022-08-30T04:37:33.408Z,35.90
2022-08-30T04:40:03.453Z,36.20
2022-08-30T04:42:31.636Z,35.60
2022-08-30T04:45:00.229Z,36.60
2022-08-30T04:47:27.079Z,36.30
2022-08-30T04:49:53.879Z,36.00
2022-08-30T04:52:20.739Z,36.10
2022-08-30T04:54:47.496Z,36.00
2022-08-30T04:57:14.260Z,36.30
2022-08-30T04:59:41.075Z,36.10
2022-08-30T05:02:09.011Z,36.00
2022-08-30T05:04:37.100Z,36.00
2022-08-30T05:07:03.874Z,36.00
2022-08-30T05:09:30.628Z,35.90
2022-08-30T05:11:57.367Z,35.90
2022-08-30T05:14:24.186Z,35.90
2022-08-30T05:16:50.946Z,35.90
2022-08-30T05:19:17.703Z,36.00
2022-08-30T05:21:44.447Z,36.00
2022-08-30T05:24:11.232Z,35.90
2022-08-30T05:26:38.097Z,35.90
2022-08-30T05:29:04.897Z,35.90
2022-08-30T05:31:33.357Z,35.80
2022-08-30T05:34:00.372Z,36.30
2022-08-30T05:36:28.202Z,36.20
2022-08-30T05:38:55.063Z,36.10
2022-08-30T05:41:22.265Z,36.10
2022-08-30T05:43:49.277Z,36.50
2022-08-30T05:46:19.723Z,36.00
2022-08-30T05:48:47.054Z,36.20
2022-08-30T05:51:14.909Z,36.00
2022-08-30T05:53:41.686Z,37.00
2022-08-30T05:56:09.754Z,35.80
2022-08-30T05:58:36.597Z,36.20
2022-08-30T06:01:03.788Z,36.00
2022-08-30T06:03:32.865Z,36.20
2022-08-30T06:06:00.070Z,36.10
2022-08-30T06:08:26.859Z,36.10
2022-08-30T06:10:53.620Z,35.70
2022-08-30T06:13:20.455Z,35.80
2022-08-30T06:15:47.309Z,36.00
2022-08-30T06:18:14.106Z,36.50
2022-08-30T06:20:41.910Z,35.60
2022-08-30T06:23:08.911Z,36.10
2022-08-30T06:25:41.999Z,35.80
2022-08-30T06:28:09.133Z,35.80
2022-08-30T06:30:35.953Z,35.70
2022-08-30T06:33:02.749Z,35.60
2022-08-30T06:35:30.735Z,35.60
2022-08-30T06:37:59.532Z,35.80
2022-08-30T06:40:26.506Z,35.60
2022-08-30T06:42:54.696Z,36.20
2022-08-30T06:45:21.493Z,35.60
2022-08-30T06:47:48.407Z,36.20
2022-08-30T06:50:15.745Z,35.40
2022-08-30T06:52:42.801Z,35.80
2022-08-30T06:55:10.395Z,35.80
2022-08-30T06:57:37.917Z,35.80
2022-08-30T07:00:05.498Z,36.00
2022-08-30T07:02:32.298Z,35.30
2022-08-30T07:04:59.100Z,35.60
2022-08-30T07:07:25.839Z,35.70
2022-08-30T07:09:53.917Z,35.60
2022-08-30T07:12:20.708Z,35.80
2022-08-30T07:14:47.603Z,35.50
2022-08-30T07:17:34.827Z,35.40
2022-08-30T07:20:02.473Z,34.80
2022-08-30T07:22:29.359Z,35.90
2022-08-30T07:24:56.104Z,35.50
2022-08-30T07:27:22.872Z,35.50
2022-08-30T07:29:49.907Z,35.60
2022-08-30T07:32:16.663Z,35.80
2022-08-30T07:34:43.453Z,35.70
2022-08-30T07:37:10.232Z,35.50
2022-08-30T07:39:47.740Z,35.50
2022-08-30T07:42:15.203Z,35.50
2022-08-30T07:44:42.035Z,36.00
2022-08-30T07:47:08.772Z,35.80
2022-08-30T07:49:36.632Z,35.60
2022-08-30T07:52:03.596Z,35.80
2022-08-30T07:54:30.333Z,35.90
2022-08-30T07:56:57.111Z,35.80
2022-08-30T07:59:23.982Z,36.60
2022-08-30T08:01:50.796Z,35.80
2022-08-30T08:04:19.512Z,36.00
2022-08-30T08:06:46.292Z,36.00
2022-08-30T08:09:13.076Z,35.70
2022-08-30T08:11:41.455Z,35.90
2022-08-30T08:14:08.362Z,35.90
2022-08-30T08:16:37.406Z,35.50
2022-08-30T08:19:06.975Z,36.10
2022-08-30T08:21:33.903Z,35.80
2022-08-30T08:24:00.656Z,35.60
2022-08-30T08:26:27.495Z,36.50
2022-08-30T08:28:54.273Z,35.60
2022-08-30T08:31:27.099Z,35.50
2022-08-30T08:33:56.780Z,36.10
2022-08-30T08:36:23.614Z,35.60
2022-08-30T08:38:50.375Z,35.40
2022-08-30T08:41:29.449Z,35.50
2022-08-30T08:43:56.220Z,35.60
2022-08-30T08:46:28.605Z,35.30
2022-08-30T08:49:00.233Z,34.40
2022-08-30T08:51:46.983Z,35.90
2022-08-30T08:54:16.760Z,35.50
2022-08-30T08:56:43.520Z,34.30
2022-08-30T08:59:11.643Z,35.40
2022-08-30T09:01:41.415Z,35.70
2022-08-30T09:04:43.487Z,34.70
2022-08-30T09:07:14.873Z,34.30
2022-08-30T09:09:41.726Z,34.20
2022-08-30T09:12:08.862Z,35.60
2022-08-30T09:14:38.843Z,35.60
2022-08-30T09:17:06.795Z,35.90
2022-08-30T09:19:37.961Z,35.80
2022-08-30T09:22:26.648Z,34.30
2022-08-30T09:25:00.800Z,34.30
2022-08-30T09:27:30.523Z,34.40
2022-08-30T09:29:58.576Z,36.10
2022-08-30T09:32:26.177Z,35.90
2022-08-30T09:34:52.918Z,36.00
2022-08-30T09:37:30.663Z,35.80
2022-08-30T09:39:57.557Z,34.30
2022-08-30T09:42:28.861Z,35.80
2022-08-30T09:45:10.458Z,36.10
2022-08-30T09:47:38.945Z,36.00
2022-08-30T09:50:10.069Z,36.20
2022-08-30T09:52:53.253Z,35.90
2022-08-30T09:55:41.092Z,34.70
2022-08-30T09:58:12.870Z,34.70
2022-08-30T10:00:45.583Z,34.70
2022-08-30T10:03:12.321Z,36.10
2022-08-30T10:05:57.983Z,36.00
2022-08-30T10:08:25.958Z,34.70
2022-08-30T10:10:54.315Z,36.00
2022-08-30T10:13:36.499Z,36.30
2022-08-30T10:16:05.987Z,34.80
2022-08-30T10:18:32.777Z,34.70
2022-08-30T10:21:22.768Z,36.00
2022-08-30T10:23:52.989Z,34.80
2022-08-30T10:26:22.914Z,36.30
2022-08-30T10:28:55.762Z,34.90
2022-08-30T10:31:36.466Z,36.10
2022-08-30T10:34:05.096Z,34.70
2022-08-30T10:36:33.279Z,36.30
2022-08-30T10:39:00.025Z,36.20
2022-08-30T10:41:29.885Z,36.00
2022-08-30T10:44:00.085Z,34.70
2022-08-30T10:46:29.878Z,36.20
2022-08-30T10:48:56.993Z,34.80
2022-08-30T10:51:27.119Z,36.50
2022-08-30T10:53:57.470Z,34.80
2022-08-30T10:56:24.872Z,34.90
2022-08-30T10:58:54.483Z,36.40
2022-08-30T11:01:23.609Z,36.40
2022-08-30T11:03:53.536Z,36.70
2022-08-30T11:06:38.926Z,36.10
2022-08-30T11:09:11.615Z,34.90
2022-08-30T11:11:46.435Z,35.00
2022-08-30T11:14:14.605Z,34.90
2022-08-30T11:16:48.377Z,36.40
2022-08-30T11:19:23.381Z,35.10
2022-08-30T11:21:53.300Z,35.00
2022-08-30T11:24:21.836Z,36.40
2022-08-30T11:26:48.607Z,36.40
2022-08-30T11:29:30.911Z,36.20
2022-08-30T11:32:18.784Z,35.20
2022-08-30T11:34:45.724Z,36.80
2022-08-30T11:37:31.340Z,36.40
2022-08-30T11:40:01.820Z,35.30
2022-08-30T11:42:30.404Z,36.90
2022-08-30T11:45:25.215Z,36.70
2022-08-30T11:48:00.160Z,35.40
2022-08-30T11:50:28.680Z,35.50
2022-08-30T11:53:00.134Z,36.90
2022-08-30T11:55:45.759Z,35.70
2022-08-30T11:58:13.065Z,35.80
2022-08-30T12:00:41.246Z,37.00
2022-08-30T12:03:27.181Z,37.30
2022-08-30T12:05:57.456Z,37.50
2022-08-30T12:08:36.170Z,37.40
2022-08-30T12:11:13.143Z,35.80
2022-08-30T12:13:42.711Z,36.10
2022-08-30T12:16:11.754Z,36.00
2022-08-30T12:18:43.224Z,37.40
2022-08-30T12:21:43.740Z,37.60
2022-08-30T12:24:18.701Z,37.40
2022-08-30T12:26:46.291Z,36.00
2022-08-30T12:29:18.698Z,37.50
2022-08-30T12:31:45.509Z,36.00
2022-08-30T12:34:38.494Z,37.20
2022-08-30T12:37:05.611Z,36.10
2022-08-30T12:39:36.376Z,37.10
2022-08-30T12:42:27.051Z,36.10
2022-08-30T12:44:55.037Z,36.70
2022-08-30T12:47:23.163Z,39.20
2022-08-30T12:49:50.332Z,39.30
2022-08-30T12:52:17.098Z,39.40
2022-08-30T12:54:45.316Z,39.30
2022-08-30T12:57:32.453Z,39.90
2022-08-30T13:00:02.296Z,39.70
2022-08-30T13:02:46.100Z,39.90
2022-08-30T13:05:33.197Z,39.00
2022-08-30T13:08:18.766Z,39.20
2022-08-30T13:10:54.670Z,39.20
2022-08-30T13:13:28.648Z,39.60
2022-08-30T13:15:55.661Z,39.70
2022-08-30T13:18:32.485Z,40.30
2022-08-30T13:21:25.700Z,39.90
2022-08-30T13:23:55.344Z,40.10
2022-08-30T13:26:23.236Z,41.00
2022-08-30T13:28:51.947Z,40.80
2022-08-30T13:31:18.882Z,41.20
2022-08-30T13:33:46.332Z,41.10
2022-08-30T13:36:16.094Z,41.10
2022-08-30T13:38:43.070Z,40.70
2022-08-30T13:41:10.846Z,41.30
2022-08-30T13:46:26.731Z,41.80
2022-08-30T13:49:03.764Z,42.40
2022-08-30T13:51:31.037Z,41.90
2022-08-30T13:53:58.205Z,42.10
2022-08-30T13:56:25.399Z,42.00
2022-08-30T13:58:52.143Z,41.90
2022-08-30T14:01:19.688Z,42.50
2022-08-30T14:06:34.498Z,43.00
2022-08-30T14:09:04.563Z,43.20
2022-08-30T14:11:31.725Z,43.30
2022-08-30T14:16:46.490Z,43.30
2022-08-30T14:19:13.972Z,43.30
2022-08-30T14:21:40.864Z,43.60
2022-08-30T14:24:07.865Z,43.50
2022-08-30T14:26:39.495Z,43.80
2022-08-30T14:29:09.787Z,43.10
2022-08-30T14:31:40.622Z,43.00
2022-08-30T14:34:07.873Z,43.00
2022-08-30T14:36:35.435Z,44.10
2022-08-30T14:39:02.644Z,44.20
2022-08-30T14:41:34.917Z,44.00
2022-08-30T14:44:01.714Z,44.40
2022-08-30T14:46:28.492Z,44.50
2022-08-30T14:48:55.259Z,44.60
2022-08-30T14:51:22.588Z,44.50
2022-08-30T14:53:51.121Z,44.80
2022-08-30T14:56:19.784Z,44.70
2022-08-30T14:58:50.116Z,44.60
2022-08-30T15:01:16.988Z,44.00
2022-08-30T15:03:44.048Z,44.50
2022-08-30T15:06:11.093Z,44.40
2022-08-30T15:08:37.987Z,44.40
2022-08-30T15:11:09.785Z,44.30
2022-08-30T15:13:36.566Z,43.70
2022-08-30T15:16:09.424Z,44.20
2022-08-30T15:18:36.578Z,44.50
2022-08-30T15:21:03.585Z,44.30
2022-08-30T15:23:31.364Z,44.30
2022-08-30T15:25:58.367Z,44.30
2022-08-30T15:28:25.154Z,44.30
2022-08-30T15:30:52.121Z,44.20
2022-08-30T15:33:18.896Z,44.20
2022-08-30T15:35:45.641Z,44.10
2022-08-30T15:38:12.633Z,44.20
2022-08-30T15:40:40.075Z,44.20
2022-08-30T15:43:07.223Z,44.30
2022-08-30T15:45:34.017Z,44.10
2022-08-30T15:48:00.955Z,44.20
2022-08-30T15:50:28.088Z,44.40
2022-08-30T15:52:55.019Z,44.20
2022-08-30T15:55:21.780Z,44.20
2022-08-30T15:57:48.588Z,44.10
2022-08-30T16:00:15.557Z,44.40
2022-08-30T16:02:42.379Z,44.10
2022-08-30T16:05:09.765Z,44.20
2022-08-30T16:07:40.675Z,44.20
2022-08-30T16:10:08.300Z,44.30
2022-08-30T16:12:35.115Z,44.00
2022-08-30T16:15:02.157Z,44.20
2022-08-30T16:17:28.916Z,44.50
2022-08-30T16:19:58.917Z,44.20
2022-08-30T16:22:26.590Z,44.40
2022-08-30T16:24:53.600Z,44.50
2022-08-30T16:27:21.146Z,44.50
2022-08-30T16:29:48.602Z,45.10
2022-08-30T16:32:17.344Z,44.40
2022-08-30T16:34:44.091Z,44.30
2022-08-30T16:37:10.900Z,44.30
2022-08-30T16:39:37.677Z,44.30
2022-08-30T16:42:06.820Z,44.40
2022-08-30T16:44:33.893Z,44.30
2022-08-30T16:47:01.639Z,44.30
2022-08-30T16:49:28.532Z,44.30
2022-08-30T16:51:55.312Z,44.40
2022-08-30T16:54:22.278Z,44.40
2022-08-30T16:56:49.125Z,44.60
2022-08-30T16:59:16.780Z,44.40
2022-08-30T17:01:44.733Z,44.30
2022-08-30T17:04:13.922Z,44.70
2022-08-30T17:06:45.801Z,44.50
2022-08-30T17:09:14.888Z,44.60
2022-08-30T17:11:42.007Z,44.50
2022-08-30T17:14:09.710Z,44.50
2022-08-30T17:16:37.174Z,44.40
2022-08-30T17:19:05.051Z,44.60
2022-08-30T17:21:31.966Z,44.60
2022-08-30T17:24:02.018Z,44.60
2022-08-30T17:26:32.455Z,44.60
2022-08-30T17:28:59.287Z,44.80
2022-08-30T17:31:27.945Z,44.60
2022-08-30T17:34:00.538Z,44.90
2022-08-30T17:36:28.191Z,44.80
2022-08-30T17:38:54.959Z,44.90
2022-08-30T17:41:21.694Z,44.80
2022-08-30T17:43:48.950Z,44.80
2022-08-30T17:46:20.665Z,44.80
2022-08-30T17:48:47.692Z,44.20
2022-08-30T17:51:24.904Z,44.90
2022-08-30T17:53:51.654Z,44.90
2022-08-30T17:56:18.405Z,44.80
2022-08-30T17:58:47.077Z,44.80
2022-08-30T18:01:14.421Z,45.00
2022-08-30T18:03:42.155Z,44.80
2022-08-30T18:06:12.797Z,45.00
2022-08-30T18:08:39.741Z,45.10
2022-08-30T18:11:06.661Z,44.90
2022-08-30T18:13:33.420Z,44.80
2022-08-30T18:16:04.341Z,44.90
2022-08-30T18:18:32.332Z,44.20
2022-08-30T18:20:59.163Z,45.00
2022-08-30T18:23:26.805Z,44.90
2022-08-30T18:25:55.427Z,44.70
2022-08-30T18:28:22.268Z,44.90
2022-08-30T18:30:49.043Z,44.90
2022-08-30T18:33:16.913Z,44.80
2022-08-30T18:35:48.483Z,44.90
2022-08-30T18:38:15.481Z,44.90
2022-08-30T18:40:42.378Z,44.90
2022-08-30T18:43:10.545Z,44.90
2022-08-30T18:45:37.514Z,45.00
2022-08-30T18:48:05.483Z,45.10
2022-08-30T18:50:32.576Z,45.10
2022-08-30T18:52:59.695Z,45.00
2022-08-30T18:55:26.485Z,45.10
2022-08-30T18:57:54.017Z,45.10
2022-08-30T19:00:21.187Z,45.20
2022-08-30T19:02:47.988Z,45.20
2022-08-30T19:05:16.216Z,45.20
2022-08-30T19:07:44.032Z,45.50
2022-08-30T19:10:12.426Z,45.50
2022-08-30T19:12:39.504Z,45.20
2022-08-30T19:15:10.953Z,45.40
2022-08-30T19:17:38.977Z,45.30
2022-08-30T19:20:07.003Z,45.70
2022-08-30T19:23:03.451Z,45.70
2022-08-30T19:25:24.167Z,45.70
2022-08-30T19:27:51.419Z,45.80
2022-08-30T19:30:24.001Z,45.70
2022-08-30T19:32:52.971Z,46.20
2022-08-30T19:35:19.735Z,45.70
2022-08-30T19:37:46.536Z,45.80
2022-08-30T19:40:14.470Z,45.90
2022-08-30T19:42:46.501Z,46.00
2022-08-30T19:45:14.133Z,45.90
2022-08-30T19:47:40.939Z,46.00
2022-08-30T19:50:07.856Z,46.10
2022-08-30T19:52:36.328Z,45.90
2022-08-30T19:55:03.770Z,46.30
2022-08-30T19:57:30.568Z,46.10
2022-08-30T19:59:57.936Z,46.20
2022-08-30T20:02:25.754Z,46.00
2022-08-30T20:04:54.096Z,46.40
2022-08-30T20:07:27.417Z,46.70
2022-08-30T20:09:54.678Z,46.40
2022-08-30T20:12:21.440Z,46.60
2022-08-30T20:14:48.204Z,46.40
2022-08-30T20:17:15.523Z,46.80
2022-08-30T20:19:42.307Z,46.90
2022-08-30T20:22:09.096Z,47.00
2022-08-30T20:27:08.399Z,47.00
2022-08-30T20:29:35.215Z,46.80
2022-08-30T20:32:03.282Z,46.90
2022-08-30T20:34:30.033Z,47.00
2022-08-30T20:36:57.015Z,46.70
2022-08-30T20:39:24.079Z,46.90
2022-08-30T20:41:51.059Z,46.90
2022-08-30T20:44:18.153Z,46.80
2022-08-30T20:46:45.259Z,47.00
2022-08-30T20:49:12.246Z,47.10
2022-08-30T20:51:39.425Z,47.30
2022-08-30T20:54:06.348Z,47.10
2022-08-30T20:56:34.417Z,47.30
2022-08-30T20:59:02.665Z,47.10
2022-08-30T21:01:34.102Z,47.20
2022-08-30T21:04:02.344Z,46.70
2022-08-30T21:06:29.122Z,47.10
2022-08-30T21:08:55.879Z,47.30
2022-08-30T21:11:23.352Z,47.30
2022-08-30T21:13:50.122Z,47.10
2022-08-30T21:16:17.006Z,47.30
2022-08-30T21:18:48.877Z,47.10
2022-08-30T21:21:21.209Z,47.10
2022-08-30T21:23:48.632Z,47.30
2022-08-30T21:26:15.480Z,47.20
2022-08-30T21:28:42.232Z,47.10
2022-08-30T21:31:10.099Z,47.20
2022-08-30T21:33:37.114Z,47.20
2022-08-30T21:36:23.115Z,47.30
2022-08-30T21:38:49.854Z,47.40
2022-08-30T21:41:16.606Z,47.40
2022-08-30T21:43:43.412Z,47.30
2022-08-30T21:46:10.783Z,47.30
2022-08-30T21:48:37.825Z,47.30
2022-08-30T21:51:05.512Z,47.40
2022-08-30T21:53:32.314Z,47.40
2022-08-30T21:55:59.079Z,47.40
2022-08-30T21:58:26.079Z,47.50
2022-08-30T22:00:54.714Z,47.50
2022-08-30T22:03:21.613Z,47.60
2022-08-30T22:05:52.219Z,47.60
2022-08-30T22:08:18.966Z,47.00
2022-08-30T22:10:45.732Z,47.50
2022-08-30T22:13:14.133Z,47.60
2022-08-30T22:15:40.867Z,47.50
2022-08-30T22:18:07.642Z,47.60
2022-08-30T22:20:34.392Z,47.50
2022-08-30T22:23:02.339Z,47.50
2022-08-30T22:25:29.209Z,47.60
2022-08-30T22:27:55.982Z,47.40
2022-08-30T22:30:22.776Z,47.20
2022-08-30T22:32:49.530Z,47.30
2022-08-30T22:35:18.187Z,47.10
2022-08-30T22:37:47.578Z,47.10
2022-08-30T22:40:15.268Z,47.10
2022-08-30T22:42:42.089Z,47.00
2022-08-30T22:45:15.038Z,47.70
2022-08-30T22:47:41.771Z,46.10
2022-08-30T22:50:10.229Z,45.70
2022-08-30T22:52:37.005Z,45.30
2022-08-30T22:55:04.321Z,44.90
2022-08-30T22:57:31.161Z,44.60
2022-08-30T22:59:57.945Z,44.20
2022-08-30T23:02:24.736Z,43.90
2022-08-30T23:04:51.523Z,43.60
2022-08-30T23:07:18.268Z,43.10
2022-08-30T23:09:45.012Z,42.80
2022-08-30T23:12:11.784Z,42.70
2022-08-30T23:14:38.561Z,42.40
2022-08-30T23:17:05.428Z,42.10
2022-08-30T23:19:32.230Z,41.90
2022-08-30T23:21:59.060Z,41.80
2022-08-30T23:24:48.843Z,41.50
2022-08-30T23:27:34.667Z,39.90
2022-08-30T23:30:20.047Z,40.00
2022-08-30T23:33:05.567Z,39.70
2022-08-30T23:35:50.832Z,39.40
2022-08-30T23:38:36.102Z,39.20
2022-08-30T23:41:21.517Z,39.20
2022-08-30T23:44:06.739Z,38.90
2022-08-30T23:46:52.042Z,38.80
2022-08-30T23:49:37.474Z,38.50
2022-08-30T23:52:23.107Z,38.40
2022-08-30T23:55:08.435Z,38.80
2022-08-30T23:57:53.568Z,38.50
